createdAt,value
2022-08-05T00:01:48.792Z,101009.25
2022-08-05T00:06:02.523Z,101016.66
2022-08-05T00:08:53.408Z,101008.53
2022-08-05T00:12:15.365Z,101004.41
2022-08-05T00:15:55.476Z,101005.75
2022-08-05T00:19:18.154Z,101002.44
2022-08-05T00:22:47.185Z,100994.31
2022-08-05T00:26:22.382Z,100993.31
2022-08-05T00:29:44.116Z,100988.91
2022-08-05T00:33:07.452Z,100992.50
2022-08-05T00:37:09.721Z,100988.13
2022-08-05T00:40:30.939Z,100996.75
2022-08-05T00:43:52.670Z,100988.16
2022-08-05T00:47:16.365Z,100986.31
2022-08-05T00:50:41.229Z,100984.47
2022-08-05T00:54:04.294Z,100986.19
2022-08-05T00:57:38.335Z,100985.78
2022-08-05T01:01:09.069Z,100987.47
2022-08-05T01:04:31.702Z,100978.28
2022-08-05T01:08:40.890Z,100992.75
2022-08-05T01:11:39.003Z,100987.38
2022-08-05T01:15:06.177Z,100990.91
2022-08-05T01:18:56.351Z,100982.34
2022-08-05T01:22:46.983Z,100993.03
2022-08-05T01:26:26.368Z,101004.13
2022-08-05T01:29:53.657Z,100998.72
2022-08-05T01:33:19.700Z,101007.13
2022-08-05T01:36:47.142Z,101054.56
2022-08-05T01:40:12.444Z,101062.75
2022-08-05T01:43:35.207Z,101015.91
2022-08-05T01:46:59.949Z,101046.44
2022-08-05T01:50:28.823Z,101048.75
2022-08-05T01:53:56.960Z,101045.78
2022-08-05T01:58:12.771Z,101042.88
2022-08-05T02:01:09.900Z,101035.97
2022-08-05T02:04:36.197Z,101014.66
2022-08-05T02:08:01.424Z,101018.41
2022-08-05T02:11:33.547Z,101024.28
2022-08-05T02:15:05.723Z,101016.53
2022-08-05T02:18:42.041Z,101024.91
2022-08-05T02:22:25.929Z,101011.72
2022-08-05T02:25:52.244Z,101022.41
2022-08-05T02:29:21.459Z,101023.66
2022-08-05T02:32:44.396Z,101019.03
2022-08-05T02:36:10.060Z,101015.69
2022-08-05T02:39:41.283Z,101015.69
2022-08-05T02:43:03.506Z,101013.16
2022-08-05T02:46:30.249Z,101013.16
2022-08-05T02:49:52.796Z,101002.06
2022-08-05T02:53:19.473Z,100997.06
2022-08-05T02:56:46.116Z,101006.44
2022-08-05T03:00:09.732Z,101009.16
2022-08-05T03:03:34.216Z,101014.78
2022-08-05T03:07:48.492Z,101007.91
2022-08-05T03:11:01.127Z,100997.84
2022-08-05T03:14:46.100Z,100992.84
2022-08-05T03:18:10.046Z,101009.34
2022-08-05T03:21:33.067Z,101016.22
2022-08-05T03:25:31.973Z,101008.88
2022-08-05T03:28:45.166Z,101005.94
2022-08-05T03:32:09.738Z,101008.03
2022-08-05T03:35:34.081Z,101011.13
2022-08-05T03:39:08.139Z,101014.47
2022-08-05T03:42:52.253Z,101005.25
2022-08-05T03:46:15.482Z,101006.47
2022-08-05T03:49:51.911Z,101001.03
2022-08-05T03:55:54.206Z,100996.25
2022-08-05T03:57:02.121Z,100990.44
2022-08-05T04:00:39.667Z,100982.09
2022-08-05T04:04:10.276Z,100987.97
2022-08-05T04:07:46.738Z,100983.78
2022-08-05T04:11:18.452Z,100989.47
2022-08-05T04:14:43.566Z,100994.47
2022-08-05T04:18:09.395Z,100999.31
2022-08-05T04:22:05.313Z,100995.97
2022-08-05T04:25:15.411Z,100998.91
2022-08-05T04:28:37.223Z,100995.13
2022-08-05T04:32:13.157Z,100997.25
2022-08-05T04:36:15.913Z,100999.78
2022-08-05T04:39:19.715Z,101001.03
2022-08-05T04:42:42.783Z,101002.69
2022-08-05T04:46:08.387Z,101003.94
2022-08-05T04:50:00.862Z,101009.38
2022-08-05T04:53:13.015Z,101020.66
2022-08-05T04:56:37.259Z,101020.47
2022-08-05T05:00:00.842Z,101026.50
2022-08-05T05:03:22.888Z,101022.94
2022-08-05T05:06:51.966Z,101012.53
2022-08-05T05:10:19.204Z,101010.88
2022-08-05T05:13:43.186Z,101016.09
2022-08-05T05:17:07.364Z,101018.41
2022-08-05T05:20:31.395Z,101021.13
2022-08-05T05:24:04.139Z,101022.38
2022-08-05T05:27:45.741Z,101009.66
2022-08-05T05:31:10.293Z,101011.09
2022-08-05T05:34:33.338Z,101010.88
2022-08-05T05:38:00.000Z,101011.94
2022-08-05T05:41:23.019Z,100998.53
2022-08-05T05:44:45.941Z,100990.13
2022-08-05T05:48:08.789Z,100989.28
2022-08-05T05:51:49.711Z,101008.31
2022-08-05T05:55:14.826Z,101024.41
2022-08-05T05:58:36.385Z,101021.03
2022-08-05T06:02:01.815Z,101030.47
2022-08-05T06:05:24.518Z,101046.38
2022-08-05T06:08:49.555Z,101075.25
2022-08-05T06:12:12.240Z,101093.00
2022-08-05T06:16:29.590Z,101102.84
2022-08-05T06:19:26.046Z,101087.38
2022-08-05T06:22:55.827Z,101093.44
2022-08-05T06:26:24.054Z,101108.06
2022-08-05T06:30:04.200Z,101119.16
2022-08-05T06:33:33.448Z,101121.44
2022-08-05T06:37:11.425Z,101130.22
2022-08-05T06:40:34.541Z,101129.56
2022-08-05T06:44:00.730Z,101128.13
2022-08-05T06:47:42.156Z,101123.06
2022-08-05T06:51:07.320Z,101126.19
2022-08-05T06:54:31.416Z,101146.69
2022-08-05T06:58:02.824Z,101155.06
2022-08-05T07:01:35.677Z,101158.19
2022-08-05T07:04:58.527Z,101152.31
2022-08-05T07:08:20.853Z,101149.16
2022-08-05T07:11:51.590Z,101119.41
2022-08-05T07:15:34.405Z,101116.88
2022-08-05T07:19:16.115Z,101139.25
2022-08-05T07:22:55.562Z,101132.94
2022-08-05T07:26:22.558Z,101125.16
2022-08-05T07:30:23.806Z,101128.22
2022-08-05T07:33:36.802Z,101118.56
2022-08-05T07:37:00.992Z,101122.94
2022-08-05T07:40:31.361Z,101139.09
2022-08-05T07:43:56.684Z,101123.53
2022-08-05T07:47:18.513Z,101128.50
2022-08-05T07:50:47.556Z,101142.25
2022-08-05T07:54:12.749Z,101156.31
2022-08-05T07:57:42.049Z,101165.72
2022-08-05T08:01:17.317Z,101161.03
2022-08-05T08:04:44.995Z,101171.91
2022-08-05T08:08:07.162Z,101176.91
2022-08-05T08:11:47.869Z,101176.47
2022-08-05T08:15:17.328Z,101167.78
2022-08-05T08:18:39.586Z,101167.31
2022-08-05T08:22:01.347Z,101165.81
2022-08-05T08:25:26.409Z,101168.94
2022-08-05T08:28:55.155Z,101169.91
2022-08-05T08:32:21.775Z,101168.41
2022-08-05T08:35:53.860Z,101158.34
2022-08-05T08:39:32.182Z,101149.69
2022-08-05T08:45:19.456Z,101139.22
2022-08-05T08:46:45.503Z,101140.88
2022-08-05T08:50:23.158Z,101153.69
2022-08-05T08:53:51.155Z,101146.09
2022-08-05T08:57:13.817Z,101145.88
2022-08-05T09:00:36.043Z,101151.94
2022-08-05T09:04:00.954Z,101153.84
2022-08-05T09:07:28.925Z,101153.84
2022-08-05T09:11:01.254Z,101147.69
2022-08-05T09:14:56.989Z,101165.75
2022-08-05T09:18:08.660Z,101175.22
2022-08-05T09:22:22.226Z,101199.56
2022-08-05T09:25:24.061Z,101216.47
2022-08-05T09:29:05.047Z,101226.13
2022-08-05T09:32:40.632Z,101221.63
2022-08-05T09:36:16.262Z,101203.41
2022-08-05T09:39:45.840Z,101194.00
2022-08-05T09:43:28.118Z,101207.25
2022-08-05T09:47:15.787Z,101193.22
2022-08-05T09:50:44.532Z,101194.13
2022-08-05T09:54:09.412Z,101207.56
2022-08-05T09:57:39.698Z,101206.13
2022-08-05T10:01:15.050Z,101204.91
2022-08-05T10:04:45.224Z,101195.06
2022-08-05T10:08:34.947Z,101193.38
2022-08-05T10:11:50.870Z,101195.88
2022-08-05T10:15:20.961Z,101195.44
2022-08-05T10:18:43.502Z,101200.06
2022-08-05T10:22:15.651Z,101198.41
2022-08-05T10:25:51.727Z,101197.53
2022-08-05T10:29:13.399Z,101187.69
2022-08-05T10:32:59.574Z,101171.31
2022-08-05T10:36:26.286Z,101134.59
2022-08-05T10:40:04.037Z,101138.75
2022-08-05T10:43:44.121Z,101157.66
2022-08-05T10:47:26.844Z,101193.31
2022-08-05T10:51:03.352Z,101190.41
2022-08-05T10:54:46.988Z,101162.97
2022-08-05T10:58:20.589Z,101165.28
2022-08-05T11:01:55.114Z,101166.59
2022-08-05T11:05:29.267Z,101180.66
2022-08-05T11:09:16.702Z,101203.97
2022-08-05T11:12:50.898Z,101199.34
2022-08-05T11:16:47.824Z,101211.94
2022-08-05T11:20:10.755Z,101199.16
2022-08-05T11:24:05.689Z,101202.28
2022-08-05T11:27:45.756Z,101197.72
2022-08-05T11:31:57.537Z,101203.81
2022-08-05T11:35:10.495Z,101204.44
2022-08-05T11:38:57.558Z,101209.22
2022-08-05T11:42:28.071Z,101211.53
2022-08-05T11:46:15.259Z,101219.28
2022-08-05T11:49:33.759Z,101215.06
2022-08-05T11:52:58.212Z,101208.31
2022-08-05T11:56:25.348Z,101220.47
2022-08-05T12:00:02.106Z,101212.69
2022-08-05T12:03:55.598Z,101215.56
2022-08-05T12:08:07.348Z,101208.63
2022-08-05T12:11:05.955Z,101211.75
2022-08-05T12:14:37.329Z,101213.63
2022-08-05T12:18:03.651Z,101213.81
2022-08-05T12:21:39.142Z,101209.81
2022-08-05T12:25:01.639Z,101219.22
2022-08-05T12:28:35.139Z,101212.88
2022-08-05T12:32:02.150Z,101221.44
2022-08-05T12:35:39.374Z,101210.69
2022-08-05T12:39:05.504Z,101211.91
2022-08-05T12:42:31.098Z,101208.09
2022-08-05T12:45:54.664Z,101200.09
2022-08-05T12:49:18.963Z,101205.25
2022-08-05T12:52:42.467Z,101215.66
2022-08-05T12:56:34.526Z,101196.09
2022-08-05T13:01:57.535Z,101197.69
2022-08-05T13:03:42.871Z,101199.38
2022-08-05T13:07:10.372Z,101191.78
2022-08-05T13:10:50.256Z,101198.00
2022-08-05T13:14:25.023Z,101199.16
2022-08-05T13:17:59.349Z,101202.34
2022-08-05T13:21:21.623Z,101212.38
2022-08-05T13:24:57.358Z,101203.13
2022-08-05T13:28:21.816Z,101205.22
2022-08-05T13:32:04.977Z,101190.28
2022-08-05T13:35:31.339Z,101195.28
2022-08-05T13:39:24.428Z,101200.06
2022-08-05T13:42:55.741Z,101201.88
2022-08-05T13:46:35.832Z,101206.28
2022-08-05T13:50:04.557Z,101201.19
2022-08-05T13:53:28.043Z,101208.69
2022-08-05T13:56:53.587Z,101202.16
2022-08-05T14:00:15.723Z,101201.09
2022-08-05T14:03:42.143Z,101197.28
2022-08-05T14:07:26.515Z,101187.53
2022-08-05T14:10:59.834Z,101203.94
2022-08-05T14:14:33.535Z,101205.16
2022-08-05T14:17:57.792Z,101198.00
2022-08-05T14:22:07.084Z,101207.66
2022-08-05T14:25:06.460Z,101206.00
2022-08-05T14:28:52.350Z,101203.34
2022-08-05T14:32:26.587Z,101208.69
2022-08-05T14:35:50.367Z,101209.16
2022-08-05T14:39:13.603Z,101207.88
2022-08-05T14:42:46.918Z,101217.88
2022-08-05T14:46:11.071Z,101225.34
2022-08-05T14:49:59.469Z,101226.81
2022-08-05T14:53:15.289Z,101223.22
2022-08-05T14:56:38.108Z,101230.41
2022-08-05T15:00:08.646Z,101236.28
2022-08-05T15:03:38.940Z,101239.59
2022-08-05T15:07:01.465Z,101235.41
2022-08-05T15:10:28.804Z,101252.75
2022-08-05T15:13:50.749Z,101243.88
2022-08-05T15:17:44.296Z,101241.81
2022-08-05T15:20:55.419Z,101259.72
2022-08-05T15:24:17.602Z,101250.75
2022-08-05T15:27:51.911Z,101252.72
2022-08-05T15:31:14.707Z,101251.72
2022-08-05T15:34:32.527Z,101249.44
2022-08-05T15:38:34.273Z,101255.59
2022-08-05T15:41:55.924Z,101260.28
2022-08-05T15:45:18.982Z,101256.16
2022-08-05T15:49:09.920Z,101265.72
2022-08-05T15:52:53.410Z,101270.84
2022-08-05T15:56:16.622Z,101265.25
2022-08-05T15:59:40.177Z,101268.00
2022-08-05T16:03:04.915Z,101274.53
2022-08-05T16:06:27.279Z,101284.63
2022-08-05T16:09:51.226Z,101298.06
2022-08-05T16:13:23.715Z,101287.22
2022-08-05T16:16:46.930Z,101301.50
2022-08-05T16:20:12.173Z,101304.69
2022-08-05T16:23:53.667Z,101306.78
2022-08-05T16:27:17.070Z,101310.78
2022-08-05T16:30:39.477Z,101311.84
2022-08-05T16:34:03.157Z,101331.78
2022-08-05T16:38:10.576Z,101319.63
2022-08-05T16:42:12.344Z,101335.75
2022-08-05T16:44:54.249Z,101353.81
2022-08-05T16:48:25.191Z,101357.84
2022-08-05T16:51:50.295Z,101356.25
2022-08-05T16:55:13.320Z,101365.03
2022-08-05T16:58:35.164Z,101368.19
2022-08-05T17:01:58.069Z,101371.16
2022-08-05T17:05:21.650Z,101386.28
2022-08-05T17:08:53.265Z,101384.03
2022-08-05T17:12:16.222Z,101393.06
2022-08-05T17:15:49.075Z,101401.63
2022-08-05T17:19:16.455Z,101395.75
2022-08-05T17:22:38.881Z,101419.19
2022-08-05T17:26:00.750Z,101417.47
2022-08-05T17:29:33.111Z,101435.84
2022-08-05T17:32:56.499Z,101442.25
2022-08-05T17:36:33.840Z,101460.59
2022-08-05T17:39:57.495Z,101473.88
2022-08-05T17:43:47.025Z,101485.69
2022-08-05T17:47:03.402Z,101494.53
2022-08-05T17:50:28.020Z,101504.22
2022-08-05T17:53:54.656Z,101509.38
2022-08-05T17:57:16.725Z,101528.63
2022-08-05T18:00:44.694Z,101539.19
2022-08-05T18:04:11.915Z,101543.81
2022-08-05T18:07:41.748Z,101556.94
2022-08-05T18:11:06.018Z,101556.06
2022-08-05T18:14:28.678Z,101566.28
2022-08-05T18:18:00.830Z,101571.91
2022-08-05T18:21:26.481Z,101577.69
2022-08-05T18:24:50.605Z,101581.13
2022-08-05T18:28:16.627Z,101592.25
2022-08-05T18:32:12.983Z,101584.88
2022-08-05T18:35:59.899Z,101568.22
2022-08-05T18:39:42.575Z,101543.91
2022-08-05T18:42:59.601Z,101574.56
2022-08-05T18:46:22.847Z,101575.59
2022-08-05T18:50:05.029Z,101577.94
2022-08-05T18:53:34.694Z,101590.44
2022-08-05T18:57:05.141Z,101584.75
2022-08-05T19:00:31.662Z,101603.41
2022-08-05T19:03:58.158Z,101605.69
2022-08-05T19:07:20.421Z,101616.38
2022-08-05T19:10:42.394Z,101632.34
2022-08-05T19:14:20.045Z,101631.00
2022-08-05T19:18:08.532Z,101629.84
2022-08-05T19:21:34.137Z,101619.38
2022-08-05T19:25:00.663Z,101641.22
2022-08-05T19:28:24.467Z,101636.72
2022-08-05T19:31:51.357Z,101644.84
2022-08-05T19:35:13.256Z,101651.81
2022-08-05T19:38:41.007Z,101659.63
2022-08-05T19:42:07.333Z,101654.72
2022-08-05T19:45:33.296Z,101651.69
2022-08-05T19:49:00.831Z,101658.28
2022-08-05T19:52:31.814Z,101659.31
2022-08-05T19:56:14.354Z,101664.72
2022-08-05T19:59:51.151Z,101685.03
2022-08-05T20:03:21.570Z,101664.75
2022-08-05T20:06:46.003Z,101670.66
2022-08-05T20:10:13.427Z,101686.06
2022-08-05T20:13:58.218Z,101700.41
2022-08-05T20:17:23.447Z,101714.13
2022-08-05T20:20:46.114Z,101720.56
2022-08-05T20:24:11.464Z,101725.09
2022-08-05T20:27:41.636Z,101717.84
2022-08-05T20:31:05.631Z,101720.56
2022-08-05T20:34:28.513Z,101711.78
2022-08-05T20:38:06.770Z,101720.91
2022-08-05T20:41:44.061Z,101724.09
2022-08-05T20:45:07.974Z,101733.56
2022-08-05T20:48:31.587Z,101740.34
2022-08-05T20:51:54.044Z,101748.63
2022-08-05T20:55:56.693Z,101745.88
2022-08-05T20:58:59.833Z,101766.16
2022-08-05T21:02:26.774Z,101765.63
2022-08-05T21:05:55.647Z,101765.31
2022-08-05T21:09:20.964Z,101784.75
2022-08-05T21:12:57.722Z,101797.59
2022-08-05T21:16:29.525Z,101808.38
2022-08-05T21:19:52.153Z,101796.22
2022-08-05T21:23:15.317Z,101813.75
2022-08-05T21:26:38.383Z,101813.75
2022-08-05T21:30:03.444Z,101802.25
2022-08-05T21:33:25.426Z,101809.69
2022-08-05T21:37:01.976Z,101818.97
2022-08-05T21:40:26.946Z,101820.47
2022-08-05T21:44:01.822Z,101824.03
2022-08-05T21:47:55.089Z,101823.53
2022-08-05T21:52:16.291Z,101812.19
2022-08-05T21:54:51.974Z,101810.50
2022-08-05T21:58:19.243Z,101807.63
2022-08-05T22:01:41.231Z,101814.88
2022-08-05T22:05:04.826Z,101810.13
2022-08-05T22:08:27.170Z,101808.63
2022-08-05T22:11:48.998Z,101820.91
2022-08-05T22:15:16.498Z,101833.22
2022-08-05T22:18:39.034Z,101837.25
2022-08-05T22:22:01.323Z,101845.16
2022-08-05T22:26:10.130Z,101842.25
2022-08-05T22:29:26.859Z,101827.72
2022-08-05T22:32:55.928Z,101827.34
2022-08-05T22:36:24.133Z,101841.13
2022-08-05T22:39:50.463Z,101842.28
2022-08-05T22:43:12.206Z,101850.03
2022-08-05T22:46:39.834Z,101852.72
2022-08-05T22:50:20.672Z,101849.34
2022-08-05T22:53:49.916Z,101850.47
2022-08-05T22:57:11.767Z,101856.19
2022-08-05T23:00:33.646Z,101863.06
2022-08-05T23:03:58.811Z,101868.78
2022-08-05T23:07:22.595Z,101883.44
2022-08-05T23:10:44.188Z,101892.56
2022-08-05T23:14:06.140Z,101888.16
2022-08-05T23:17:34.529Z,101890.16
2022-08-05T23:20:59.611Z,101889.31
2022-08-05T23:24:23.569Z,101900.28
2022-08-05T23:28:00.177Z,101890.06
2022-08-05T23:31:22.469Z,101884.31
2022-08-05T23:34:44.518Z,101900.13
2022-08-05T23:38:06.444Z,101899.41
2022-08-05T23:41:37.355Z,101891.09
2022-08-05T23:45:02.829Z,101888.63
2022-08-05T23:48:25.297Z,101888.56
2022-08-05T23:52:05.730Z,101896.72
2022-08-05T23:55:31.051Z,101909.38
2022-08-05T23:58:54.570Z,101912.13
